Time;durP1;ratioP1;P1;durP2;ratioP2;P2;SDS_P1;SDS_P2;PMS_P1;PMS_P2;Temp;Humidity;BMP_temperature;BMP_pressure;BME280_temperature;BME280_humidity;BME280_pressure;Samples;Min_cycle;Max_cycle;Signal;HPM_P1;HPM_P2
2023/06/27 00:02:38;;;;;;;2.93;2.40;;;23.30;58.20;;;;;;10476775;28;20304;-82
2023/06/27 00:07:42;;;;;;;3.83;2.40;;;23.20;58.40;;;;;;10472948;28;20252;-82
2023/06/27 00:12:45;;;;;;;4.93;2.60;;;23.20;57.90;;;;;;10492981;28;20695;-82
2023/06/27 00:17:47;;;;;;;3.80;2.33;;;23.20;58.50;;;;;;10474173;28;20225;-82
2023/06/27 00:22:50;;;;;;;4.87;2.70;;;23.20;59.40;;;;;;10444387;28;20233;-83
2023/06/27 00:27:53;;;;;;;4.00;2.43;;;23.20;58.00;;;;;;10472678;28;20245;-82
2023/06/27 00:32:57;;;;;;;4.00;2.57;;;23.20;58.00;;;;;;10477296;28;20213;-82
2023/06/27 00:38:01;;;;;;;2.30;2.10;;;23.20;57.70;;;;;;10479956;28;20208;-82
2023/06/27 00:43:03;;;;;;;2.20;2.00;;;23.10;58.00;;;;;;10466523;28;20229;-82
2023/06/27 00:48:06;;;;;;;5.47;2.73;;;23.00;58.30;;;;;;10475044;28;20220;-82
2023/06/27 00:53:11;;;;;;;4.63;2.40;;;23.00;58.50;;;;;;10484539;28;20225;-82
2023/06/27 00:58:14;;;;;;;3.20;2.10;;;22.90;59.10;;;;;;10468997;28;20367;-81
2023/06/27 01:03:16;;;;;;;3.07;2.10;;;22.90;58.60;;;;;;10466079;28;20221;-81
2023/06/27 01:08:26;;;;;;;3.40;3.07;;;22.90;58.80;;;;;;10468987;28;20209;-83
2023/06/27 01:13:34;;;;;;;2.30;2.00;;;22.90;58.90;;;;;;10478268;28;20214;-82
2023/06/27 01:18:39;;;;;;;5.33;2.40;;;22.90;58.50;;;;;;10491248;28;20210;-80
2023/06/27 01:23:52;;;;;;;4.33;2.50;;;22.90;58.60;;;;;;10455819;28;20233;-82
2023/06/27 01:28:54;;;;;;;3.07;2.77;;;22.90;58.60;;;;;;10469076;28;20212;-82
2023/06/27 01:34:02;;;;;;;2.90;2.50;;;22.90;58.50;;;;;;10472873;28;20205;-82
2023/06/27 01:39:10;;;;;;;2.90;2.60;;;22.90;58.50;;;;;;10474049;28;21080;-81
2023/06/27 01:44:15;;;;;;;7.20;3.30;;;22.90;58.90;;;;;;10483035;28;20600;-79
2023/06/27 01:49:17;;;;;;;2.97;2.63;;;22.80;58.90;;;;;;10468027;28;20308;-82
2023/06/27 01:54:21;;;;;;;3.60;2.90;;;22.80;59.20;;;;;;10469463;28;20213;-82
2023/06/27 01:59:23;;;;;;;3.27;2.50;;;22.70;59.30;;;;;;10478340;28;20209;-80
2023/06/27 02:04:25;;;;;;;2.93;2.50;;;22.70;59.10;;;;;;10472455;28;20212;-82
2023/06/27 02:09:28;;;;;;;3.40;2.83;;;22.60;59.30;;;;;;10473282;28;20225;-82
2023/06/27 02:14:31;;;;;;;5.50;2.63;;;22.60;59.10;;;;;;10492087;28;20209;-83
2023/06/27 02:19:33;;;;;;;3.50;2.70;;;22.60;60.20;;;;;;10477670;28;20276;-81
2023/06/27 02:24:36;;;;;;;2.80;2.60;;;22.60;59.60;;;;;;10472688;28;20241;-81
2023/06/27 02:29:38;;;;;;;4.20;2.73;;;22.60;59.60;;;;;;10462508;28;20241;-82
2023/06/27 02:34:41;;;;;;;2.83;2.63;;;22.50;59.70;;;;;;10478920;28;20288;-82
2023/06/27 02:39:50;;;;;;;2.77;2.57;;;22.50;60.00;;;;;;10483773;28;20221;-81
2023/06/27 02:44:52;;;;;;;3.33;2.50;;;22.50;59.70;;;;;;10482454;28;20186;-82
2023/06/27 02:49:55;;;;;;;3.60;2.90;;;22.50;58.90;;;;;;10473166;28;20221;-82
2023/06/27 02:54:58;;;;;;;5.40;2.67;;;22.50;59.50;;;;;;10488063;28;20280;-81
2023/06/27 03:00:01;;;;;;;2.60;2.20;;;22.40;60.10;;;;;;10497230;28;20226;-80
2023/06/27 03:05:03;;;;;;;4.70;3.20;;;22.50;59.80;;;;;;10468377;28;20221;-81
2023/06/27 03:10:07;;;;;;;4.07;2.70;;;22.40;59.40;;;;;;10462829;28;20246;-83
2023/06/27 03:15:10;;;;;;;3.20;2.90;;;22.40;59.60;;;;;;10483129;28;20276;-81
2023/06/27 03:20:13;;;;;;;2.80;2.60;;;22.30;59.60;;;;;;10498611;28;20229;-79
2023/06/27 03:25:16;;;;;;;4.30;2.87;;;22.30;60.10;;;;;;10483717;28;20760;-82
2023/06/27 03:30:19;;;;;;;3.70;3.17;;;22.20;59.50;;;;;;10471110;28;20229;-81
2023/06/27 03:35:21;;;;;;;2.93;2.73;;;22.20;59.80;;;;;;10476544;28;20202;-82
2023/06/27 03:40:26;;;;;;;3.03;2.60;;;22.20;59.60;;;;;;10473786;28;20292;-82
2023/06/27 03:45:28;;;;;;;3.97;3.10;;;22.10;60.30;;;;;;10467871;28;20652;-79
2023/06/27 03:50:32;;;;;;;4.03;2.83;;;22.10;60.50;;;;;;10470795;28;20225;-82
2023/06/27 03:55:37;;;;;;;2.67;2.57;;;22.10;59.70;;;;;;10454060;28;20216;-82
2023/06/27 04:00:43;;;;;;;8.20;2.90;;;22.10;60.60;;;;;;10474408;28;20217;-83
2023/06/27 04:05:45;;;;;;;3.70;3.40;;;22.10;59.80;;;;;;10472081;28;20201;-81
2023/06/27 04:10:49;;;;;;;3.33;3.03;;;22.10;60.70;;;;;;10469289;28;20217;-83
2023/06/27 04:15:51;;;;;;;8.03;3.10;;;22.10;59.60;;;;;;10467869;28;20201;-82
2023/06/27 04:20:53;;;;;;;3.67;2.70;;;22.10;60.80;;;;;;10470390;28;20599;-82
2023/06/27 04:26:07;;;;;;;4.30;2.83;;;22.10;59.80;;;;;;10472236;28;20202;-80
2023/06/27 04:31:11;;;;;;;3.40;2.70;;;22.10;60.10;;;;;;10450950;28;20244;-79
2023/06/27 04:36:15;;;;;;;2.73;2.53;;;22.10;59.90;;;;;;10473246;28;20210;-82
2023/06/27 04:41:19;;;;;;;3.87;2.80;;;22.10;60.40;;;;;;10479331;28;20240;-83
2023/06/27 04:46:21;;;;;;;2.77;2.30;;;22.10;60.20;;;;;;10441364;28;20209;-81
2023/06/27 05:58:53;;;;;;;2.53;2.37;;;22.90;59.00;;;;;;2795340;22;20741;-81
2023/06/27 06:04:43;;;;;;;3.20;2.80;;;23.00;58.00;;;;;;10303411;28;20298;-82
2023/06/27 06:10:01;;;;;;;2.60;2.40;;;23.20;58.40;;;;;;10549756;28;20200;-82
2023/06/27 06:15:08;;;;;;;7.13;3.33;;;23.30;57.70;;;;;;10533777;28;20213;-83
2023/06/27 06:20:17;;;;;;;2.60;2.37;;;23.40;56.90;;;;;;10535861;28;20221;-82
2023/06/27 06:25:35;;;;;;;5.73;2.90;;;23.40;58.00;;;;;;10507827;28;20559;-81
2023/06/27 06:30:43;;;;;;;2.80;2.60;;;23.40;57.00;;;;;;10537947;28;20760;-82
2023/06/27 06:35:53;;;;;;;2.67;2.30;;;23.50;55.70;;;;;;10541302;28;20209;-80
2023/06/27 06:40:57;;;;;;;2.43;2.00;;;23.60;55.20;;;;;;10541452;28;20293;-81
2023/06/27 06:46:13;;;;;;;5.30;2.10;;;23.70;56.20;;;;;;10537648;28;20201;-81
2023/06/27 07:04:19;;;;;;;5.97;2.20;;;24.30;55.00;;;;;;10381480;28;20274;-80
2023/06/27 07:09:50;;;;;;;3.60;2.27;;;24.50;54.10;;;;;;10497557;28;20279;-81
2023/06/27 07:15:27;;;;;;;5.27;2.40;;;24.70;53.10;;;;;;10520644;28;20220;-80
2023/06/27 07:20:36;;;;;;;1.90;1.80;;;24.80;54.40;;;;;;10543265;28;20269;-81
2023/06/27 07:26:13;;;;;;;4.73;2.40;;;24.80;53.30;;;;;;10519773;28;20271;-83
2023/06/27 07:31:36;;;;;;;2.80;2.23;;;25.00;54.20;;;;;;10526411;28;20248;-81
2023/06/27 07:43:33;;;;;;;3.17;2.27;;;25.60;54.00;;;;;;10525142;28;20284;-81
2023/06/27 07:49:05;;;;;;;3.30;2.70;;;25.80;53.80;;;;;;10552845;28;20756;-81
2023/06/27 07:54:27;;;;;;;2.10;2.00;;;26.20;52.90;;;;;;10537143;28;20215;-83
2023/06/27 07:59:48;;;;;;;2.23;2.07;;;26.40;51.30;;;;;;10556746;28;20229;-82
2023/06/27 08:10:34;;;;;;;2.50;2.33;;;26.50;52.40;;;;;;10546453;28;20211;-83
2023/06/27 08:21:04;;;;;;;2.33;2.17;;;26.50;51.50;;;;;;10536403;28;20236;-81
2023/06/27 08:26:06;;;;;;;2.20;2.10;;;26.40;51.40;;;;;;10553646;28;20727;-83
2023/06/27 08:31:11;;;;;;;3.67;2.40;;;26.70;50.90;;;;;;10524963;28;20231;-80
2023/06/27 08:36:13;;;;;;;4.83;2.10;;;26.80;51.40;;;;;;10541398;28;20212;-82
2023/06/27 08:41:17;;;;;;;2.53;2.33;;;26.70;51.80;;;;;;10543030;28;20209;-82
2023/06/27 08:46:23;;;;;;;4.00;2.40;;;26.70;52.00;;;;;;10523824;28;20230;-82
2023/06/27 08:58:51;;;;;;;2.20;2.00;;;27.40;51.80;;;;;;10516502;28;20247;-82
2023/06/27 09:04:22;;;;;;;2.90;1.87;;;28.20;50.70;;;;;;10574784;22;20236;-81
2023/06/27 09:09:47;;;;;;;2.17;2.00;;;28.10;50.20;;;;;;10502757;28;20204;-82
2023/06/27 09:15:16;;;;;;;3.57;2.10;;;27.70;49.90;;;;;;10481292;28;20194;-82
2023/06/27 09:20:51;;;;;;;3.77;2.00;;;27.30;50.30;;;;;;10502461;28;20225;-82
2023/06/27 09:26:30;;;;;;;3.97;2.20;;;27.40;50.70;;;;;;10505723;28;20205;-83
2023/06/27 09:31:39;;;;;;;3.20;2.00;;;28.10;50.30;;;;;;10456114;28;20227;-82
2023/06/27 09:36:51;;;;;;;4.70;2.03;;;28.70;50.10;;;;;;10512332;28;20721;-83
2023/06/27 09:41:56;;;;;;;3.40;2.13;;;29.00;48.50;;;;;;10513689;28;20767;-81
2023/06/27 09:46:58;;;;;;;5.47;3.20;;;29.00;47.90;;;;;;10499875;28;20190;-84
2023/06/27 09:52:05;;;;;;;3.30;2.40;;;28.70;49.20;;;;;;10494186;28;20252;-81
2023/06/27 09:57:13;;;;;;;4.03;2.17;;;28.60;48.60;;;;;;10509373;28;20212;-82
2023/06/27 10:02:16;;;;;;;2.73;1.97;;;28.50;49.60;;;;;;10474207;28;20259;-82
2023/06/27 10:07:21;;;;;;;3.00;2.33;;;28.30;48.70;;;;;;10475186;28;20680;-82
2023/06/27 10:12:28;;;;;;;2.40;2.20;;;28.50;48.80;;;;;;10507038;28;20764;-81
2023/06/27 10:17:32;;;;;;;1.80;1.70;;;28.40;47.30;;;;;;10502426;28;20229;-83
2023/06/27 10:22:41;;;;;;;2.20;2.00;;;28.20;49.30;;;;;;10501534;28;20245;-83
2023/06/27 10:27:44;;;;;;;3.97;2.70;;;28.00;49.40;;;;;;10483062;28;20202;-80
2023/06/27 10:32:49;;;;;;;3.33;2.00;;;27.80;48.90;;;;;;10510116;28;20251;-81
2023/06/27 10:38:11;;;;;;;3.80;1.90;;;27.60;48.60;;;;;;10481791;28;20213;-80
2023/06/27 10:43:36;;;;;;;3.80;2.00;;;27.60;49.70;;;;;;10474366;28;20225;-83
2023/06/27 10:48:49;;;;;;;4.27;2.40;;;27.70;49.50;;;;;;10497619;28;20201;-81
2023/06/27 10:54:12;;;;;;;4.70;2.03;;;27.80;49.70;;;;;;10512613;22;20228;-83
2023/06/27 10:59:17;;;;;;;2.90;2.07;;;27.90;49.50;;;;;;10525649;28;20246;-84
2023/06/27 11:04:21;;;;;;;4.17;2.20;;;28.10;49.20;;;;;;10517051;28;20224;-84
2023/06/27 11:09:24;;;;;;;2.63;2.40;;;28.10;48.40;;;;;;10537843;28;20201;-83
2023/06/27 11:14:39;;;;;;;2.50;2.30;;;28.10;49.10;;;;;;10518004;28;20229;-82
2023/06/27 11:19:43;;;;;;;3.97;2.27;;;28.00;48.90;;;;;;10530174;28;20218;-84
2023/06/27 11:24:46;;;;;;;2.60;1.97;;;27.90;49.30;;;;;;10516875;28;20217;-83
2023/06/27 11:29:48;;;;;;;4.80;2.43;;;27.60;49.00;;;;;;10541678;28;20201;-84
2023/06/27 11:34:50;;;;;;;3.60;2.73;;;27.50;48.70;;;;;;10535678;28;20217;-80
2023/06/27 11:39:55;;;;;;;4.23;2.30;;;27.30;48.60;;;;;;10537566;28;20207;-83
2023/06/27 11:44:57;;;;;;;3.90;2.57;;;27.30;48.90;;;;;;10517851;28;20246;-83
2023/06/27 11:50:08;;;;;;;2.23;1.87;;;27.30;48.80;;;;;;10542964;28;20197;-82
2023/06/27 11:55:11;;;;;;;3.00;2.10;;;27.20;49.90;;;;;;10537793;28;20232;-84
2023/06/27 12:00:16;;;;;;;2.43;2.27;;;27.40;48.70;;;;;;10505908;28;20205;-84
2023/06/27 12:05:19;;;;;;;2.23;2.13;;;27.40;49.30;;;;;;10506515;28;20228;-83
2023/06/27 12:10:23;;;;;;;2.60;2.40;;;27.40;48.80;;;;;;10496231;28;20284;-83
2023/06/27 12:15:25;;;;;;;2.37;2.27;;;27.40;48.90;;;;;;10502586;28;20520;-81
2023/06/27 12:20:39;;;;;;;3.43;2.37;;;27.40;48.20;;;;;;10526823;28;20207;-83
2023/06/27 12:25:43;;;;;;;3.60;2.90;;;27.40;49.20;;;;;;10538716;28;20216;-80
2023/06/27 12:30:45;;;;;;;3.63;1.97;;;27.30;48.30;;;;;;10510376;28;20621;-84
2023/06/27 12:35:47;;;;;;;2.20;2.00;;;27.20;49.40;;;;;;10499379;28;20275;-83
2023/06/27 12:40:51;;;;;;;2.53;2.33;;;27.20;49.20;;;;;;10521429;28;20200;-84
2023/06/27 12:46:00;;;;;;;3.00;2.37;;;27.20;49.30;;;;;;10522154;28;20662;-83
2023/06/27 12:51:03;;;;;;;2.60;2.40;;;27.10;48.90;;;;;;10485443;28;20220;-81
2023/06/27 12:56:07;;;;;;;3.53;2.73;;;27.10;49.30;;;;;;10518959;28;20275;-83
2023/06/27 13:01:10;;;;;;;2.33;2.13;;;27.10;48.60;;;;;;10526264;28;20217;-82
2023/06/27 13:06:13;;;;;;;5.80;2.63;;;27.00;49.40;;;;;;10523152;28;20407;-82
2023/06/27 13:11:16;;;;;;;3.63;2.43;;;26.90;49.90;;;;;;10510152;28;20291;-82
2023/06/27 13:16:18;;;;;;;4.23;2.50;;;26.80;49.30;;;;;;10520241;28;20201;-82
2023/06/27 13:21:20;;;;;;;4.97;2.60;;;26.70;49.20;;;;;;10531501;28;20311;-81
2023/06/27 13:26:24;;;;;;;2.57;2.37;;;26.70;48.90;;;;;;10535620;28;20226;-80
2023/06/27 13:31:27;;;;;;;2.70;2.50;;;26.70;49.70;;;;;;10530178;28;20427;-82
2023/06/27 13:36:29;;;;;;;3.70;2.80;;;26.70;48.70;;;;;;10505133;28;20205;-82
2023/06/27 13:41:32;;;;;;;2.50;2.23;;;26.70;48.90;;;;;;10520308;28;20630;-81
2023/06/27 13:46:35;;;;;;;3.87;2.50;;;26.60;49.30;;;;;;10529162;28;20223;-82
2023/06/27 13:51:37;;;;;;;2.60;2.37;;;26.50;49.20;;;;;;10523921;28;20221;-83
2023/06/27 13:56:40;;;;;;;2.57;2.37;;;26.50;47.90;;;;;;10536151;28;20245;-80
2023/06/27 14:01:42;;;;;;;4.10;2.53;;;26.60;48.00;;;;;;10506895;28;20216;-82
2023/06/27 14:06:51;;;;;;;3.30;3.00;;;26.60;47.30;;;;;;10533276;28;20193;-82
2023/06/27 14:11:54;;;;;;;2.27;2.13;;;26.50;47.80;;;;;;10508871;28;20213;-82
2023/06/27 14:16:57;;;;;;;3.20;2.10;;;26.40;48.70;;;;;;10553587;28;20700;-83
2023/06/27 14:21:59;;;;;;;2.83;2.20;;;26.40;46.90;;;;;;10523728;28;20232;-82
2023/06/27 14:27:04;;;;;;;2.50;2.03;;;26.40;47.60;;;;;;10521895;28;20215;-82
2023/06/27 14:32:06;;;;;;;3.90;2.30;;;26.30;47.00;;;;;;10526059;28;20781;-82
2023/06/27 14:37:08;;;;;;;2.43;2.20;;;26.20;47.60;;;;;;10524833;28;20277;-81
2023/06/27 14:42:12;;;;;;;2.33;1.93;;;26.20;46.70;;;;;;10500261;28;20224;-83
2023/06/27 14:47:14;;;;;;;2.50;2.30;;;26.10;46.70;;;;;;10520671;28;20224;-80
2023/06/27 14:52:16;;;;;;;2.63;2.43;;;25.90;46.60;;;;;;10522736;28;20703;-82
2023/06/27 14:57:21;;;;;;;2.70;2.47;;;25.80;46.90;;;;;;10519353;28;20280;-82
2023/06/27 15:02:23;;;;;;;4.77;2.40;;;25.90;47.80;;;;;;10525161;28;20255;-83
2023/06/27 15:07:40;;;;;;;2.87;2.67;;;26.00;47.40;;;;;;10511632;28;20197;-81
2023/06/27 15:12:43;;;;;;;2.53;2.33;;;26.10;47.40;;;;;;10499451;28;20227;-82
2023/06/27 15:17:45;;;;;;;3.03;2.17;;;26.20;46.00;;;;;;10531143;28;20261;-82
2023/06/27 15:22:47;;;;;;;3.80;2.80;;;26.20;46.20;;;;;;10528739;28;20227;-82
2023/06/27 15:27:51;;;;;;;2.73;2.53;;;26.20;46.20;;;;;;10526637;28;20200;-82
2023/06/27 15:32:53;;;;;;;2.30;2.17;;;26.20;46.00;;;;;;10524803;28;20205;-83
2023/06/27 15:37:55;;;;;;;2.07;1.87;;;26.30;47.10;;;;;;10494532;28;20201;-82
2023/06/27 15:42:58;;;;;;;2.43;2.23;;;26.30;47.30;;;;;;10517146;28;20723;-82
2023/06/27 15:48:01;;;;;;;2.47;2.27;;;26.30;47.30;;;;;;10488274;28;20227;-82
2023/06/27 15:53:03;;;;;;;3.50;2.33;;;26.20;47.80;;;;;;10520882;28;20213;-82
2023/06/27 15:58:07;;;;;;;3.03;2.40;;;26.20;48.60;;;;;;10527800;28;20205;-82
2023/06/27 16:03:09;;;;;;;4.80;2.67;;;26.20;47.60;;;;;;10527283;28;20323;-78
2023/06/27 16:08:15;;;;;;;4.57;2.30;;;26.10;48.00;;;;;;10516931;28;20201;-82
2023/06/27 16:13:18;;;;;;;3.33;3.03;;;26.00;48.80;;;;;;10521153;28;20752;-83
2023/06/27 16:18:21;;;;;;;4.33;2.30;;;26.00;49.00;;;;;;10524552;28;20258;-82
2023/06/27 16:23:23;;;;;;;3.03;2.77;;;26.00;49.10;;;;;;10517785;28;20217;-82
2023/06/27 16:28:27;;;;;;;4.73;3.00;;;25.90;49.40;;;;;;10523876;28;20217;-83
2023/06/27 16:33:29;;;;;;;4.10;2.87;;;25.80;49.70;;;;;;10505382;28;20228;-82
2023/06/27 16:38:31;;;;;;;3.33;2.87;;;25.80;50.30;;;;;;10531908;28;20268;-83
2023/06/27 16:43:35;;;;;;;3.30;2.60;;;25.80;50.00;;;;;;10523835;28;20229;-82
2023/06/27 16:48:37;;;;;;;3.77;3.20;;;25.80;50.00;;;;;;10531284;28;20292;-83
2023/06/27 16:53:39;;;;;;;2.93;2.63;;;25.70;50.60;;;;;;10539622;22;20233;-78
2023/06/27 16:58:42;;;;;;;3.30;3.07;;;25.70;50.70;;;;;;10536047;28;20202;-79
2023/06/27 17:03:44;;;;;;;4.17;2.77;;;25.80;50.30;;;;;;10527131;28;20225;-78
2023/06/27 17:08:46;;;;;;;2.80;2.60;;;25.80;50.20;;;;;;10531056;28;20560;-78
2023/06/27 17:13:50;;;;;;;3.83;2.90;;;25.70;50.20;;;;;;10537604;28;20216;-78
2023/06/27 17:18:52;;;;;;;2.50;2.27;;;25.60;50.10;;;;;;10539028;28;20200;-79
2023/06/27 17:23:54;;;;;;;5.17;2.80;;;25.50;50.80;;;;;;10539975;28;20233;-79
2023/06/27 17:28:57;;;;;;;3.10;2.90;;;25.30;50.90;;;;;;10539107;28;20267;-79
2023/06/27 17:33:59;;;;;;;5.60;2.97;;;25.30;51.10;;;;;;10537580;28;20213;-78
2023/06/27 17:39:01;;;;;;;2.67;2.43;;;25.20;50.50;;;;;;10534376;28;20661;-79
2023/06/27 17:44:05;;;;;;;3.40;3.10;;;25.10;49.90;;;;;;10541254;28;20813;-78
2023/06/27 17:49:07;;;;;;;3.60;2.90;;;25.10;51.60;;;;;;10527882;28;20197;-79
2023/06/27 17:54:09;;;;;;;3.10;2.90;;;25.10;51.60;;;;;;10522786;28;20600;-79
2023/06/27 17:59:12;;;;;;;3.43;3.00;;;25.10;51.00;;;;;;10542729;28;20224;-79
2023/06/27 18:04:15;;;;;;;3.80;3.50;;;25.10;51.00;;;;;;10519910;28;20590;-78
2023/06/27 18:09:18;;;;;;;3.60;2.87;;;25.10;51.30;;;;;;10528934;28;20209;-79
2023/06/27 18:14:22;;;;;;;4.30;2.63;;;25.00;51.30;;;;;;10529896;28;20670;-79
2023/06/27 18:19:24;;;;;;;3.67;3.03;;;25.00;51.50;;;;;;10528981;28;20197;-78
2023/06/27 18:24:27;;;;;;;4.80;3.00;;;24.90;51.80;;;;;;10530588;28;20224;-80
2023/06/27 18:29:30;;;;;;;3.27;2.63;;;24.80;51.70;;;;;;10535738;28;20642;-81
2023/06/27 18:34:32;;;;;;;2.77;2.57;;;24.80;52.20;;;;;;10534593;28;20208;-80
2023/06/27 18:39:34;;;;;;;3.10;2.90;;;24.70;52.10;;;;;;10535827;28;20284;-80
2023/06/27 18:44:39;;;;;;;3.87;3.00;;;24.60;51.90;;;;;;10533951;28;20696;-80
2023/06/27 18:49:41;;;;;;;4.57;3.00;;;24.60;52.60;;;;;;10530448;28;20205;-80
2023/06/27 18:54:43;;;;;;;4.00;2.77;;;24.50;51.30;;;;;;10526181;28;20221;-79
2023/06/27 18:59:46;;;;;;;2.90;2.67;;;24.40;52.00;;;;;;10525220;28;20196;-79
2023/06/27 19:04:48;;;;;;;3.20;2.90;;;24.30;52.60;;;;;;10525789;28;20233;-78
2023/06/27 19:09:51;;;;;;;3.13;2.93;;;24.30;52.40;;;;;;10525237;28;20202;-78
2023/06/27 19:14:54;;;;;;;4.33;2.80;;;24.30;52.30;;;;;;10535361;28;20213;-79
2023/06/27 19:19:56;;;;;;;3.63;3.10;;;24.20;53.40;;;;;;10526051;28;20719;-79
2023/06/27 19:24:58;;;;;;;3.07;2.87;;;24.10;54.50;;;;;;10529274;28;20731;-79
2023/06/27 19:30:02;;;;;;;3.93;3.43;;;24.10;55.00;;;;;;10531483;28;20277;-78
2023/06/27 19:35:04;;;;;;;5.00;2.83;;;24.10;54.10;;;;;;10526474;28;20227;-79
2023/06/27 19:40:07;;;;;;;3.23;3.00;;;24.10;54.50;;;;;;10508945;28;20219;-79
2023/06/27 19:45:11;;;;;;;3.93;3.63;;;24.10;54.10;;;;;;10514343;28;20244;-79
2023/06/27 19:50:13;;;;;;;4.80;3.80;;;24.00;53.40;;;;;;10533575;28;20254;-79
2023/06/27 19:55:16;;;;;;;4.30;3.43;;;24.00;53.80;;;;;;10524294;28;20286;-78
2023/06/27 20:00:20;;;;;;;4.47;3.20;;;24.00;54.30;;;;;;10528450;28;20204;-79
2023/06/27 20:05:22;;;;;;;3.47;3.17;;;24.00;55.10;;;;;;10527037;28;20251;-79
2023/06/27 20:10:24;;;;;;;6.00;2.60;;;24.00;54.90;;;;;;10523414;28;20197;-79
2023/06/27 20:15:28;;;;;;;2.87;2.67;;;24.00;54.20;;;;;;10524526;28;20213;-79
2023/06/27 20:20:30;;;;;;;5.00;3.10;;;24.00;55.40;;;;;;10531329;28;20306;-79
2023/06/27 20:25:32;;;;;;;3.30;2.67;;;24.00;56.10;;;;;;10523459;28;20220;-80
2023/06/27 20:30:36;;;;;;;3.40;3.10;;;23.90;55.20;;;;;;10516680;28;20194;-79
2023/06/27 20:35:39;;;;;;;10.07;3.00;;;23.90;56.00;;;;;;10528377;28;20219;-79
2023/06/27 20:40:41;;;;;;;3.30;3.00;;;23.90;55.90;;;;;;10519674;28;20189;-78
2023/06/27 20:45:45;;;;;;;2.90;2.70;;;23.90;56.00;;;;;;10513496;28;20230;-79
2023/06/27 20:50:47;;;;;;;3.40;3.10;;;23.90;55.90;;;;;;10531583;28;20220;-79
2023/06/27 20:55:49;;;;;;;3.70;3.37;;;23.80;55.70;;;;;;10543491;28;20298;-79
2023/06/27 21:00:52;;;;;;;2.67;2.50;;;23.90;54.70;;;;;;10536592;28;20680;-79
2023/06/27 21:05:55;;;;;;;3.20;3.00;;;23.80;55.40;;;;;;10509660;28;20228;-80
2023/06/27 21:10:57;;;;;;;3.33;3.03;;;23.80;55.40;;;;;;10534148;28;20200;-79
2023/06/27 21:16:00;;;;;;;2.67;2.47;;;23.80;56.30;;;;;;10535598;28;20216;-79
2023/06/27 21:21:02;;;;;;;7.43;2.97;;;23.80;56.00;;;;;;10526132;28;20193;-79
2023/06/27 21:26:04;;;;;;;4.00;2.70;;;23.80;55.20;;;;;;10537568;28;20228;-79
2023/06/27 21:31:09;;;;;;;3.37;3.07;;;23.80;56.10;;;;;;10531366;28;20288;-79
2023/06/27 21:36:11;;;;;;;4.77;3.27;;;23.70;55.40;;;;;;10525811;28;20217;-79
2023/06/27 21:41:13;;;;;;;3.30;3.00;;;23.70;55.70;;;;;;10532013;28;20242;-79
2023/06/27 21:46:17;;;;;;;3.10;2.83;;;23.70;56.20;;;;;;10532077;28;20229;-79
2023/06/27 21:51:20;;;;;;;2.87;2.67;;;23.70;55.90;;;;;;10530496;28;20285;-80
2023/06/27 21:56:22;;;;;;;4.40;2.70;;;23.70;56.10;;;;;;10533605;28;20255;-79
2023/06/27 22:01:26;;;;;;;6.07;2.93;;;23.60;55.80;;;;;;10532915;28;20234;-78
2023/06/27 22:06:28;;;;;;;2.60;2.40;;;23.60;56.00;;;;;;10533963;28;20209;-79
2023/06/27 22:11:30;;;;;;;2.60;2.40;;;23.60;55.60;;;;;;10532829;28;20798;-79
2023/06/27 22:16:34;;;;;;;2.97;2.67;;;23.50;55.80;;;;;;10529261;28;20227;-78
2023/06/27 22:21:36;;;;;;;3.53;2.67;;;23.60;56.00;;;;;;10519842;28;20209;-79
2023/06/27 22:26:38;;;;;;;2.50;2.30;;;23.60;53.70;;;;;;10533135;28;20212;-78
2023/06/27 22:31:41;;;;;;;5.27;2.63;;;23.50;55.80;;;;;;10531472;28;20223;-78
2023/06/27 22:36:44;;;;;;;2.40;2.30;;;23.50;55.10;;;;;;10536705;28;20204;-79
2023/06/27 22:41:46;;;;;;;4.27;2.67;;;23.50;55.60;;;;;;10529124;28;20221;-78
2023/06/27 22:46:49;;;;;;;2.77;2.50;;;23.50;55.40;;;;;;10533403;28;20228;-79
2023/06/27 22:57:08;;;;;;;3.87;2.80;;;23.50;54.90;;;;;;10382970;28;20609;-82
2023/06/27 23:02:14;;;;;;;4.47;2.90;;;23.40;54.90;;;;;;10382788;28;20200;-81
2023/06/27 23:07:17;;;;;;;2.87;2.60;;;23.40;54.60;;;;;;10411394;28;20227;-80
2023/06/27 23:12:19;;;;;;;2.90;2.70;;;23.40;56.00;;;;;;10417162;28;20338;-81
2023/06/27 23:17:22;;;;;;;2.50;2.30;;;23.40;55.00;;;;;;10418755;28;20621;-79
2023/06/27 23:22:24;;;;;;;3.23;2.40;;;23.40;55.50;;;;;;10425907;28;20229;-81
2023/06/27 23:27:27;;;;;;;5.93;3.10;;;23.40;54.10;;;;;;10414221;28;20233;-80
2023/06/27 23:32:30;;;;;;;2.10;1.90;;;23.30;53.70;;;;;;10433084;28;20693;-81
2023/06/27 23:37:32;;;;;;;4.67;2.30;;;23.30;55.00;;;;;;10410036;28;20195;-82
2023/06/27 23:42:34;;;;;;;4.73;2.47;;;23.30;54.60;;;;;;10414677;28;20252;-81
2023/06/27 23:47:38;;;;;;;2.43;2.23;;;23.20;55.10;;;;;;10409213;28;20225;-81
2023/06/27 23:52:40;;;;;;;2.27;2.10;;;23.20;55.90;;;;;;10404236;28;20234;-80
2023/06/27 23:57:42;;;;;;;3.77;2.40;;;23.20;54.70;;;;;;10435526;28;20194;-81
